Time;durP1;ratioP1;P1;durP2;ratioP2;P2;SDS_P1;SDS_P2;PMS_P1;PMS_P2;Temp;Humidity;BMP_temperature;BMP_pressure;BME280_temperature;BME280_humidity;BME280_pressure;Samples;Min_cycle;Max_cycle;Signal;HPM_P1;HPM_P2
2021/11/12 00:03:23;;;;;;;17.80;10.40;;;;;;;13.17;81.23;101202.00;5017139;28;20038;-81
2021/11/12 00:12:22;;;;;;;15.65;10.88;;;;;;;13.12;80.98;101193.16;5025313;28;20048;-81
2021/11/12 00:15:10;;;;;;;21.67;11.13;;;;;;;13.12;81.32;101201.34;5022099;28;20042;-81
2021/11/12 00:17:55;;;;;;;14.70;10.30;;;;;;;13.11;81.35;101194.25;5015513;28;20037;-81
2021/11/12 00:20:40;;;;;;;16.42;10.43;;;;;;;13.11;81.49;101203.28;5011856;28;20042;-82
2021/11/12 00:23:27;;;;;;;14.35;9.02;;;;;;;13.09;81.69;101205.53;5013567;28;20045;-81
2021/11/12 00:26:12;;;;;;;15.05;9.05;;;;;;;13.06;81.75;101200.69;5017562;28;20050;-80
2021/11/12 00:28:58;;;;;;;14.32;10.05;;;;;;;13.06;81.56;101210.78;5018079;28;20049;-81
2021/11/12 00:31:57;;;;;;;13.88;9.75;;;;;;;13.08;81.78;101203.09;5016931;28;20038;-82
2021/11/12 00:40:19;;;;;;;11.13;6.88;;;;;;;13.06;81.94;101197.94;5018355;28;20053;-81
2021/11/12 00:43:12;;;;;;;15.48;9.25;;;;;;;13.06;82.12;101206.13;5016912;28;20042;-81
2021/11/12 00:46:10;;;;;;;17.08;9.30;;;;;;;13.05;82.05;101204.56;5005469;28;20053;-81
2021/11/12 00:48:58;;;;;;;16.15;9.20;;;;;;;13.03;82.22;101208.72;5006170;28;20044;-81
2021/11/12 00:51:49;;;;;;;15.57;9.70;;;;;;;13.02;82.15;101209.84;5014281;28;20432;-81
2021/11/12 00:54:34;;;;;;;15.50;9.48;;;;;;;13.01;82.26;101208.22;5008294;28;20049;-81
2021/11/12 00:57:18;;;;;;;12.30;6.20;;;;;;;13.00;82.30;101206.63;5020696;28;20048;-81
2021/11/12 01:00:06;;;;;;;10.63;7.13;;;;;;;13.00;82.47;101207.44;5018594;28;20045;-81
2021/11/12 01:02:52;;;;;;;21.10;12.73;;;;;;;12.96;80.66;101202.91;4997473;28;20053;-81
2021/11/12 01:05:37;;;;;;;25.38;11.70;;;;;;;12.96;80.62;101201.00;5018508;28;20042;-81
2021/11/12 01:08:22;;;;;;;;;;;;;;;12.96;80.15;101202.91;5019462;28;20038;-81
2021/11/12 01:11:07;;;;;;;15.50;10.13;;;;;;;12.94;80.72;101191.53;5013128;28;19918;-80
2021/11/12 01:13:53;;;;;;;;;;;;;;;12.95;81.12;101195.88;5016714;28;20049;-80
2021/11/12 01:16:37;;;;;;;13.82;8.95;;;;;;;12.93;81.54;101189.91;5004839;28;19913;-81
2021/11/12 01:19:22;;;;;;;11.70;6.35;;;;;;;12.91;81.66;101192.94;5001851;28;20145;-80
2021/11/12 01:22:09;;;;;;;16.10;9.80;;;;;;;12.91;81.77;101192.94;5011997;28;20533;-80
2021/11/12 01:24:55;;;;;;;14.43;9.38;;;;;;;12.89;81.86;101195.22;5005653;28;20049;-80
2021/11/12 01:27:42;;;;;;;16.48;9.13;;;;;;;12.89;82.07;101194.41;5012745;28;20041;-81
2021/11/12 01:30:27;;;;;;;15.70;9.82;;;;;;;12.88;82.14;101198.25;5005679;28;20061;-81
2021/11/12 01:33:14;;;;;;;16.08;9.65;;;;;;;12.89;82.39;101186.22;5009815;28;20045;-81
2021/11/12 01:36:12;;;;;;;14.50;9.02;;;;;;;12.86;82.13;101195.84;5016084;28;20424;-81
2021/11/12 01:39:01;;;;;;;14.95;9.00;;;;;;;12.83;82.36;101202.75;5008656;28;20058;-81
2021/11/12 01:41:57;;;;;;;15.70;10.32;;;;;;;12.83;82.32;101196.47;5010638;28;20053;-80
2021/11/12 01:44:47;;;;;;;12.25;9.10;;;;;;;12.80;82.42;101187.00;5012777;28;20038;-80
2021/11/12 01:50:44;;;;;;;14.52;9.02;;;;;;;12.80;82.67;101187.00;4979005;28;20065;-82
2021/11/12 01:53:38;;;;;;;15.43;9.40;;;;;;;12.79;82.74;101185.41;5014383;28;20053;-82
2021/11/12 01:56:34;;;;;;;17.37;11.23;;;;;;;12.79;82.56;101188.13;5010322;28;20103;-82
2021/11/12 01:59:22;;;;;;;14.45;9.00;;;;;;;12.77;82.85;101182.19;5019135;28;20675;-82
2021/11/12 02:02:08;;;;;;;15.23;8.55;;;;;;;12.76;82.76;101179.75;5016885;28;20053;-82
2021/11/12 02:04:54;;;;;;;16.50;8.65;;;;;;;12.74;83.15;101173.84;5015115;28;20053;-81
2021/11/12 02:07:39;;;;;;;13.40;7.85;;;;;;;12.72;83.03;101165.97;5010781;28;20041;-82
2021/11/12 02:10:25;;;;;;;9.95;6.32;;;;;;;12.73;83.11;101164.84;5017571;28;20127;-82
2021/11/12 02:13:17;;;;;;;16.23;10.48;;;;;;;12.70;82.66;101159.19;5010374;28;20050;-81
2021/11/12 02:16:05;;;;;;;14.27;9.57;;;;;;;12.70;82.99;101159.19;5012157;28;20038;-82
2021/11/12 02:18:51;;;;;;;14.25;8.68;;;;;;;12.69;83.00;101158.41;5010647;28;20061;-81
2021/11/12 02:21:55;;;;;;;14.23;7.68;;;;;;;12.69;83.19;101166.59;5013700;28;20057;-81
2021/11/12 02:24:56;;;;;;;12.52;8.30;;;;;;;12.71;83.33;101163.53;5013325;28;20440;-81
2021/11/12 02:27:52;;;;;;;14.23;9.05;;;;;;;12.71;83.15;101150.69;5014481;28;20054;-81
2021/11/12 02:30:37;;;;;;;11.25;7.15;;;;;;;12.66;83.56;101139.94;5008223;28;20048;-81
2021/11/12 02:33:26;;;;;;;;;;;;;;;12.69;83.77;101139.31;5013562;28;20049;-81
2021/11/12 02:36:14;;;;;;;14.52;8.48;;;;;;;12.67;83.85;101132.56;5024388;28;19913;-81
2021/11/12 02:39:02;;;;;;;14.10;8.07;;;;;;;12.66;83.85;101131.75;5020216;28;21312;-81
2021/11/12 02:41:46;;;;;;;11.27;8.40;;;;;;;12.66;83.90;101128.22;5015770;28;20412;-81
2021/11/12 02:44:35;;;;;;;15.38;8.75;;;;;;;12.65;83.74;101121.97;5024338;28;20057;-82
2021/11/12 02:47:21;;;;;;;12.80;8.35;;;;;;;12.66;84.06;101117.31;5012338;28;20044;-81
2021/11/12 02:50:07;;;;;;;13.93;8.35;;;;;;;12.65;84.05;101124.69;5013003;28;20424;-81
2021/11/12 02:52:59;;;;;;;13.65;9.25;;;;;;;12.64;84.10;101117.66;5011066;28;20041;-81
2021/11/12 02:55:45;;;;;;;15.63;9.55;;;;;;;12.64;84.22;101120.38;5022936;28;20041;-81
2021/11/12 02:58:34;;;;;;;13.05;8.55;;;;;;;12.65;84.18;101110.22;5017771;28;20611;-82
2021/11/12 03:01:22;;;;;;;16.45;9.43;;;;;;;12.65;84.01;101113.78;5014817;28;20044;-81
2021/11/12 03:04:07;;;;;;;13.95;8.65;;;;;;;12.62;83.94;101111.69;5011572;28;20050;-82
2021/11/12 03:06:52;;;;;;;10.32;6.65;;;;;;;12.62;84.16;101116.34;5014467;28;20416;-80
2021/11/12 03:09:37;;;;;;;;;;;;;;;12.61;83.99;101115.53;5008636;28;20061;-81
2021/11/12 03:12:22;;;;;;;13.85;8.18;;;;;;;12.61;84.28;101115.53;5014798;28;19914;-81
2021/11/12 03:15:08;;;;;;;13.85;8.07;;;;;;;12.61;84.34;101115.53;5015427;28;20041;-81
2021/11/12 03:17:58;;;;;;;12.13;7.78;;;;;;;12.63;84.39;101112.50;5017788;28;20069;-80
2021/11/12 03:20:44;;;;;;;11.60;8.20;;;;;;;12.61;84.62;101096.44;5006574;28;20149;-81
2021/11/12 03:24:17;;;;;;;15.40;8.63;;;;;;;12.61;84.68;101101.91;4993642;28;20422;-81
2021/11/12 03:26:43;;;;;;;13.25;8.65;;;;;;;12.60;84.63;101089.38;5005215;28;20422;-81
2021/11/12 04:17:32;;;;;;;;;;;;;;;12.43;84.92;101128.34;5014106;28;20053;-82
2021/11/12 05:46:20;;;;;;;11.90;6.43;;;;;;;12.19;84.29;101138.06;5011113;28;20439;-81
2021/11/12 05:52:20;;;;;;;11.88;7.72;;;;;;;12.17;84.97;101135.66;5018843;28;20057;-81
2021/11/12 05:55:09;;;;;;;10.68;7.03;;;;;;;12.16;84.95;101133.22;5016694;28;20054;-80
2021/11/12 05:57:56;;;;;;;13.02;6.82;;;;;;;12.17;85.11;101130.19;5014306;28;20535;-81
2021/11/12 06:00:41;;;;;;;10.32;6.80;;;;;;;12.17;85.20;101129.38;5008143;28;20044;-81
2021/11/12 06:03:26;;;;;;;9.40;5.15;;;;;;;12.16;85.62;101131.31;5013796;28;20424;-81
2021/11/12 06:06:12;;;;;;;12.90;7.15;;;;;;;12.16;85.30;101135.97;5017880;28;20046;-81
2021/11/12 06:08:58;;;;;;;18.63;7.05;;;;;;;12.15;85.34;101146.06;5015233;28;20081;-81
2021/11/12 06:11:43;;;;;;;13.32;6.82;;;;;;;12.16;85.62;101149.59;5013936;28;20045;-81
2021/11/12 06:14:28;;;;;;;35.00;15.30;;;;;;;11.96;79.25;101150.94;5007849;28;20049;-81
2021/11/12 06:17:13;;;;;;;;;;;;;;;11.72;71.57;101151.28;5011882;28;20030;-80
2021/11/12 06:19:58;;;;;;;31.45;15.70;;;;;;;11.56;71.75;101144.63;5016047;28;19913;-80
2021/11/12 06:22:42;;;;;;;27.88;15.07;;;;;;;11.49;70.46;101146.97;5017228;28;20042;-81
2021/11/12 06:25:28;;;;;;;18.38;11.13;;;;;;;11.41;70.05;101153.97;5010720;28;20041;-81
2021/11/12 06:28:13;;;;;;;27.13;15.20;;;;;;;11.45;69.39;101151.41;5013635;28;20046;-81
2021/11/12 06:31:00;;;;;;;19.25;10.20;;;;;;;11.45;71.80;101165.03;5015433;28;20038;-81
2021/11/12 06:33:51;;;;;;;19.38;10.02;;;;;;;11.56;75.56;101171.84;5019380;28;20038;-81
2021/11/12 06:36:37;;;;;;;13.27;7.35;;;;;;;11.65;77.99;101171.91;5013135;28;20050;-81
2021/11/12 06:39:23;;;;;;;19.92;11.00;;;;;;;11.71;79.65;101159.75;5012046;28;20040;-80
2021/11/12 06:42:16;;;;;;;31.50;14.25;;;;;;;11.64;75.49;101154.75;5020606;28;20046;-81
2021/11/12 06:51:18;;;;;;;15.52;6.97;;;;;;;11.83;81.36;101160.03;5000131;28;20053;-80
2021/11/12 06:54:03;;;;;;;11.07;7.20;;;;;;;11.86;82.60;101140.31;5004614;28;20535;-80
2021/11/12 06:56:48;;;;;;;;;;;;;;;11.91;83.83;101135.53;5003021;28;20037;-81
2021/11/12 06:59:33;;;;;;;18.35;7.00;;;;;;;11.89;83.69;101145.13;5000591;28;19914;-81
2021/11/12 07:02:20;;;;;;;10.93;5.85;;;;;;;11.88;83.95;101166.16;5008024;28;20049;-81
2021/11/12 07:05:07;;;;;;;12.52;7.10;;;;;;;11.88;84.16;101163.44;5016321;28;20045;-81
2021/11/12 07:07:52;;;;;;;31.80;16.80;;;;;;;11.89;84.53;101161.47;5024417;28;20041;-81
2021/11/12 07:10:36;;;;;;;;;;;;;;;11.85;84.23;101174.13;5009938;28;20045;-81
2021/11/12 07:13:29;;;;;;;17.02;8.88;;;;;;;11.83;84.72;101193.53;5013427;28;19914;-81
2021/11/12 07:16:14;;;;;;;16.88;8.80;;;;;;;11.84;84.96;101189.66;5012263;28;20049;-80
2021/11/12 07:19:00;;;;;;;12.73;7.03;;;;;;;11.84;85.49;101191.59;5014922;28;20041;-81
2021/11/12 07:21:45;;;;;;;19.15;10.95;;;;;;;11.76;83.81;101174.09;5014602;28;20052;-81
2021/11/12 07:24:30;;;;;;;44.10;12.98;;;;;;;11.70;81.34;101179.94;5016262;28;20396;-81
2021/11/12 07:27:15;;;;;;;32.28;15.35;;;;;;;11.65;80.02;101190.97;5018625;28;20045;-82
2021/11/12 07:30:00;;;;;;;27.92;13.85;;;;;;;11.53;76.89;101195.03;5007052;28;20038;-82
2021/11/12 07:32:46;;;;;;;36.05;17.95;;;;;;;11.49;75.73;101201.44;4999324;28;20042;-81
2021/11/12 07:35:36;;;;;;;36.58;16.25;;;;;;;11.45;75.50;101195.81;5006287;28;20046;-82
2021/11/12 07:39:09;;;;;;;40.00;17.88;;;;;;;11.46;75.37;101183.81;5007114;28;20050;-81
2021/11/12 07:47:30;;;;;;;38.83;16.80;;;;;;;11.48;77.81;101167.94;5002823;28;20662;-81
2021/11/12 07:50:15;;;;;;;32.10;16.25;;;;;;;11.50;78.42;101182.06;5007184;28;20050;-82
2021/11/12 07:53:00;;;;;;;34.22;16.27;;;;;;;11.49;78.47;101195.97;5004587;28;20042;-82
2021/11/12 07:55:45;;;;;;;27.83;13.80;;;;;;;11.52;77.90;101195.38;5010479;28;20042;-82
2021/11/12 07:58:30;;;;;;;20.17;10.90;;;;;;;11.57;79.24;101189.81;5015561;28;20038;-82
2021/11/12 08:01:15;;;;;;;31.98;16.17;;;;;;;11.55;79.93;101194.75;5011453;28;20037;-82
2021/11/12 08:04:02;;;;;;;30.05;11.35;;;;;;;11.55;79.59;101190.09;5020251;28;20037;-83
2021/11/12 08:06:51;;;;;;;22.23;10.65;;;;;;;11.62;81.89;101192.41;5017522;28;20049;-82
2021/11/12 08:09:50;;;;;;;17.65;9.57;;;;;;;11.66;82.74;101190.66;5012080;28;20045;-82
2021/11/12 08:12:42;;;;;;;22.73;9.32;;;;;;;11.70;83.88;101186.19;5006957;28;20068;-80
2021/11/12 08:15:48;;;;;;;18.48;7.72;;;;;;;11.72;84.48;101183.97;5011334;28;20249;-80
2021/11/12 08:18:47;;;;;;;22.85;10.80;;;;;;;11.74;84.24;101179.03;5016703;28;20045;-80
2021/11/12 08:21:49;;;;;;;12.93;7.30;;;;;;;11.78;84.60;101188.22;5007517;28;20046;-81
2021/11/12 08:42:20;;;;;;;34.03;17.10;;;;;;;11.91;77.70;101184.59;4996316;28;19913;-81
2021/11/12 08:45:21;;;;;;;33.38;15.98;;;;;;;12.15;76.40;101183.41;5023444;28;20038;-78
2021/11/12 08:48:12;;;;;;;28.98;15.93;;;;;;;12.12;75.31;101170.44;5017400;28;20049;-78
2021/11/12 08:50:57;;;;;;;29.73;15.52;;;;;;;12.25;75.58;101180.41;5014976;28;20046;-78
2021/11/12 08:53:44;;;;;;;35.33;15.07;;;;;;;12.25;75.37;101196.78;5007876;28;20047;-78
2021/11/12 08:56:29;;;;;;;31.33;16.23;;;;;;;12.22;75.53;101181.06;5001880;28;20042;-78
2021/11/12 08:59:14;;;;;;;;;;;;;;;12.11;75.70;101182.44;5018686;28;20034;-78
2021/11/12 09:01:59;;;;;;;33.17;15.40;;;;;;;12.05;75.69;101176.31;5018721;28;19913;-78
2021/11/12 09:04:46;;;;;;;43.00;16.05;;;;;;;12.27;75.80;101170.81;5018156;28;20418;-78
2021/11/12 09:07:32;;;;;;;34.35;15.75;;;;;;;12.65;75.03;101181.19;5017113;28;20050;-78
2021/11/12 09:10:20;;;;;;;24.15;14.50;;;;;;;12.82;73.79;101189.41;5021816;28;20041;-79
2021/11/12 09:13:16;;;;;;;24.75;14.13;;;;;;;12.77;73.44;101190.38;5022490;28;20045;-79
2021/11/12 09:16:06;;;;;;;38.67;14.45;;;;;;;12.40;73.69;101182.72;5021021;28;20045;-78
2021/11/12 09:18:53;;;;;;;23.52;12.32;;;;;;;12.43;74.50;101179.38;5019243;28;20042;-78
2021/11/12 09:21:38;;;;;;;23.13;12.15;;;;;;;12.35;74.21;101175.47;5022582;28;20046;-79
2021/11/12 09:24:24;;;;;;;18.75;10.82;;;;;;;12.40;74.46;101179.97;5014359;28;20033;-79
2021/11/12 09:27:10;;;;;;;21.38;10.27;;;;;;;12.42;74.13;101191.41;5014558;28;20042;-78
2021/11/12 09:29:56;;;;;;;26.13;11.85;;;;;;;12.40;73.97;101193.63;5016356;28;20045;-78
2021/11/12 09:32:41;;;;;;;30.55;11.60;;;;;;;12.86;73.48;101199.38;5019421;28;20042;-78
2021/11/12 09:35:26;;;;;;;14.27;9.77;;;;;;;13.01;73.13;101178.19;5010171;28;20038;-78
2021/11/12 09:38:11;;;;;;;16.92;9.65;;;;;;;13.01;73.61;101164.53;5018862;23;20077;-78
2021/11/12 09:40:56;;;;;;;17.23;9.18;;;;;;;13.18;73.37;101164.59;4989989;28;20057;-79
2021/11/12 09:43:41;;;;;;;23.65;11.88;;;;;;;13.40;72.13;101169.88;4997909;28;20057;-76
2021/11/12 09:46:26;;;;;;;16.67;8.63;;;;;;;13.85;70.24;101178.50;4989651;28;20516;-77
2021/11/12 09:49:11;;;;;;;17.15;9.50;;;;;;;14.10;69.33;101182.25;4975142;28;20069;-76
2021/11/12 09:51:56;;;;;;;20.88;9.52;;;;;;;14.39;67.23;101184.25;4973302;28;20433;-77
2021/11/12 09:54:41;;;;;;;17.92;8.48;;;;;;;14.77;65.90;101186.97;4976352;28;20066;-77
2021/11/12 09:57:26;;;;;;;;;;;;;;;14.95;64.70;101188.44;4973231;28;20054;-76
2021/11/12 10:00:14;;;;;;;30.27;12.30;;;;;;;15.05;65.22;101181.75;4965934;28;21726;-76
2021/11/12 10:03:01;;;;;;;38.40;14.55;;;;;;;15.15;65.15;101187.66;4973953;28;20085;-77
2021/11/12 10:05:48;;;;;;;41.75;17.25;;;;;;;15.22;64.43;101181.66;4969273;28;20046;-75
2021/11/12 10:08:38;;;;;;;33.53;14.38;;;;;;;15.11;64.60;101175.75;4971348;28;20047;-77
2021/11/12 10:11:26;;;;;;;25.90;13.93;;;;;;;15.29;63.84;101176.41;4973383;28;20042;-76
2021/11/12 10:14:12;;;;;;;26.02;13.05;;;;;;;15.41;63.15;101168.25;4973965;28;20038;-76
2021/11/12 10:16:59;;;;;;;35.10;14.88;;;;;;;15.32;63.91;101162.84;4977362;28;20058;-77
2021/11/12 10:19:46;;;;;;;25.00;13.23;;;;;;;15.55;62.95;101160.56;4975409;28;20039;-78
2021/11/12 10:22:32;;;;;;;32.78;14.40;;;;;;;15.60;62.31;101165.03;4971431;28;20046;-77
2021/11/12 10:25:20;;;;;;;33.80;14.50;;;;;;;15.96;61.36;101178.84;4976560;28;20038;-78
2021/11/12 10:28:04;;;;;;;27.55;13.93;;;;;;;16.03;60.46;101183.78;4974691;28;20047;-77
2021/11/12 10:30:49;;;;;;;71.90;19.17;;;;;;;15.69;62.40;101174.00;4970914;28;20497;-75
2021/11/12 10:33:38;;;;;;;34.20;13.98;;;;;;;16.11;60.69;101180.13;4960222;28;20054;-77
2021/11/12 10:36:22;;;;;;;25.45;12.75;;;;;;;15.54;61.82;101177.38;4962114;28;20433;-78
2021/11/12 10:39:07;;;;;;;20.23;9.93;;;;;;;14.94;65.15;101165.72;4971892;28;20429;-76
2021/11/12 10:41:53;;;;;;;21.15;12.32;;;;;;;15.42;64.08;101150.69;4962395;28;20058;-77
2021/11/12 10:44:49;;;;;;;47.42;14.32;;;;;;;15.44;63.37;101150.34;4970761;28;20039;-78
2021/11/12 10:47:42;;;;;;;29.52;12.77;;;;;;;16.07;62.99;101147.09;4970888;28;20043;-78
2021/11/12 10:50:33;;;;;;;27.27;13.10;;;;;;;16.12;61.32;101148.81;4979624;28;20421;-79
2021/11/12 10:53:19;;;;;;;29.75;13.80;;;;;;;16.27;60.83;101135.22;4975832;28;20401;-79
2021/11/12 10:56:05;;;;;;;33.25;13.52;;;;;;;15.90;61.03;101147.28;4973964;28;20051;-79
2021/11/12 10:59:07;;;;;;;23.63;12.77;;;;;;;16.21;61.25;101130.28;4976463;28;20030;-78
2021/11/12 11:01:52;;;;;;;22.70;13.13;;;;;;;16.03;61.26;101135.22;4974444;28;20043;-78
2021/11/12 11:04:41;;;;;;;;;;;;;;;15.79;61.64;101133.22;4976168;28;20428;-78
2021/11/12 11:07:27;;;;;;;23.98;13.32;;;;;;;15.37;61.77;101132.50;4979848;28;19913;-79
2021/11/12 11:10:21;;;;;;;27.38;14.23;;;;;;;15.31;64.16;101125.63;4977979;28;20034;-79
2021/11/12 11:13:10;;;;;;;21.25;11.90;;;;;;;14.75;65.91;101131.72;4976600;28;20432;-78
2021/11/12 11:16:02;;;;;;;33.65;15.43;;;;;;;14.66;66.19;101131.00;4978976;28;20493;-78
2021/11/12 11:18:52;;;;;;;25.17;14.75;;;;;;;15.40;64.93;101131.81;4974886;28;20042;-77
2021/11/12 11:21:38;;;;;;;27.85;15.13;;;;;;;16.13;62.99;101118.28;4975834;28;20035;-78
2021/11/12 11:24:32;;;;;;;31.67;17.38;;;;;;;16.78;59.84;101110.13;4977737;28;20047;-82
2021/11/12 11:27:17;;;;;;;32.65;16.65;;;;;;;17.13;57.91;101110.34;4972180;28;20054;-80
2021/11/12 11:30:02;;;;;;;26.45;15.68;;;;;;;17.11;58.27;101105.22;4969223;28;20047;-81
2021/11/12 11:32:48;;;;;;;31.88;16.83;;;;;;;17.47;56.95;101104.25;4975066;28;20050;-79
2021/11/12 11:35:33;;;;;;;32.55;18.08;;;;;;;17.64;56.52;101100.38;4964395;28;20047;-77
2021/11/12 11:38:18;;;;;;;;;;;;;;;17.59;56.37;101100.63;4970207;28;20039;-80
2021/11/12 11:41:08;;;;;;;31.97;16.37;;;;;;;17.61;56.57;101090.09;4977518;28;19914;-77
2021/11/12 11:43:56;;;;;;;41.88;18.83;;;;;;;17.57;56.59;101095.50;4972748;28;20270;-75
2021/11/12 11:46:44;;;;;;;36.03;18.50;;;;;;;17.71;56.13;101104.13;4978721;28;20501;-76
2021/11/12 11:49:29;;;;;;;37.92;18.30;;;;;;;17.97;55.01;101111.06;4967006;28;20413;-75
2021/11/12 11:52:23;;;;;;;;;;;;;;;17.65;55.13;101113.81;4975600;28;20046;-77
2021/11/12 11:55:08;;;;;;;35.13;18.17;;;;;;;17.43;56.26;101104.13;4974383;28;19918;-76
2021/11/12 11:57:52;;;;;;;38.92;17.98;;;;;;;17.68;56.10;101098.53;4976116;28;20047;-75
2021/11/12 12:00:37;;;;;;;35.78;20.23;;;;;;;17.48;56.06;101100.34;4967920;28;20051;-76
2021/11/12 12:03:23;;;;;;;;;;;;;;;17.39;56.46;101094.19;4967744;28;20034;-76
2021/11/12 12:06:09;;;;;;;38.13;18.98;;;;;;;17.24;56.64;101087.53;4978400;28;19918;-77
2021/11/12 12:09:06;;;;;;;34.92;18.58;;;;;;;17.13;57.09;101093.88;4971703;28;20055;-76
2021/11/12 12:11:51;;;;;;;35.88;18.73;;;;;;;17.18;57.34;101090.88;4965438;28;20046;-76
2021/11/12 12:14:37;;;;;;;44.03;19.73;;;;;;;17.34;56.62;101078.75;4978667;28;20047;-75
2021/11/12 12:17:26;;;;;;;29.08;17.45;;;;;;;17.54;55.82;101076.94;4963623;28;20039;-77
2021/11/12 12:20:20;;;;;;;39.00;19.35;;;;;;;17.53;55.54;101075.31;4962268;28;20048;-78
2021/11/12 13:21:44;;;;;;;28.42;15.18;;;;;;;28.40;28.87;101045.59;4969855;28;20039;-78
2021/11/12 13:24:36;;;;;;;28.50;15.52;;;;;;;28.71;28.66;101054.56;4967705;28;20047;-78
2021/11/12 13:27:29;;;;;;;28.23;14.30;;;;;;;27.27;30.73;101041.91;4977535;28;20038;-78
2021/11/12 13:30:26;;;;;;;23.85;13.38;;;;;;;24.88;34.91;101042.53;4976581;28;20501;-82
2021/11/12 13:33:32;;;;;;;24.55;13.27;;;;;;;23.33;37.80;101032.34;4976766;28;20042;-83
2021/11/12 13:36:40;;;;;;;22.15;14.15;;;;;;;23.74;37.88;101036.38;4977038;28;20051;-79
2021/11/12 13:39:25;;;;;;;30.90;13.43;;;;;;;24.00;36.73;101031.59;4967720;28;20035;-80
2021/11/12 13:42:10;;;;;;;24.80;14.30;;;;;;;24.80;35.50;101034.56;4970901;28;20050;-78
2021/11/12 13:44:54;;;;;;;21.08;12.65;;;;;;;26.29;32.61;101037.91;4974212;28;20421;-77
2021/11/12 13:47:39;;;;;;;28.65;13.30;;;;;;;23.70;37.59;101032.00;4970975;28;20046;-79
2021/11/12 13:50:24;;;;;;;30.42;15.70;;;;;;;22.32;40.96;101037.06;4977370;28;20118;-79
2021/11/12 13:53:09;;;;;;;32.85;13.82;;;;;;;21.30;43.42;101023.97;4973760;28;20043;-77
2021/11/12 13:55:54;;;;;;;24.27;14.02;;;;;;;20.85;44.83;101012.03;4976707;28;20047;-78
2021/11/12 13:58:42;;;;;;;26.13;14.73;;;;;;;20.37;46.16;101012.97;4967528;28;20046;-76
2021/11/12 14:01:26;;;;;;;25.70;14.75;;;;;;;19.87;47.49;101012.22;4975611;28;20046;-77
2021/11/12 14:04:25;;;;;;;26.88;15.02;;;;;;;19.47;48.92;101021.03;4967677;28;20417;-76
2021/11/12 14:07:22;;;;;;;33.15;14.98;;;;;;;19.19;50.10;101018.56;4976721;28;20039;-78
2021/11/12 14:10:10;;;;;;;25.08;15.32;;;;;;;18.93;50.77;101023.16;4975160;28;20050;-79
2021/11/12 14:12:57;;;;;;;32.67;17.05;;;;;;;18.76;51.93;101024.38;4978802;28;20051;-79
2021/11/12 14:16:04;;;;;;;29.27;16.90;;;;;;;18.64;52.84;101030.81;4976697;28;20046;-78
2021/11/12 14:24:59;;;;;;;31.98;18.27;;;;;;;17.98;55.99;101025.38;4977765;28;20047;-80
2021/11/12 14:27:56;;;;;;;30.70;18.45;;;;;;;17.82;56.39;101028.19;4980425;28;20043;-78
2021/11/12 14:34:05;;;;;;;31.70;19.27;;;;;;;17.73;56.15;101018.50;4976708;28;20046;-78
2021/11/12 14:36:54;;;;;;;33.03;19.35;;;;;;;17.50;57.09;101018.31;4979191;28;20039;-79
2021/11/12 14:40:07;;;;;;;32.65;19.13;;;;;;;17.37;57.93;101019.53;4977177;28;20042;-77
2021/11/12 14:43:11;;;;;;;34.33;19.17;;;;;;;17.31;58.51;101023.69;4979688;28;20038;-77
2021/11/12 14:46:17;;;;;;;33.50;18.58;;;;;;;17.17;58.30;101028.81;4976466;28;20043;-77
2021/11/12 14:49:16;;;;;;;;;;;;;;;17.03;58.63;101019.03;4977010;28;20039;-75
2021/11/12 14:52:07;;;;;;;37.58;18.30;;;;;;;17.01;58.78;101026.03;4977167;28;19914;-78
2021/11/12 14:55:05;;;;;;;39.85;19.90;;;;;;;16.88;59.26;101019.78;4981116;28;20043;-78
2021/11/12 14:57:50;;;;;;;31.48;18.70;;;;;;;16.99;59.16;101023.63;4977985;28;20039;-77
2021/11/12 15:00:38;;;;;;;36.30;20.00;;;;;;;16.79;60.28;101024.63;4976365;28;20039;-76
2021/11/12 15:03:24;;;;;;;40.05;22.88;;;;;;;16.67;61.25;101030.97;4979684;28;20038;-77
2021/11/12 15:06:13;;;;;;;30.10;16.02;;;;;;;16.58;61.65;101022.06;4978071;28;20489;-77
2021/11/12 15:09:06;;;;;;;31.75;19.75;;;;;;;16.39;62.45;101015.59;4961078;28;20042;-78
2021/11/12 15:11:52;;;;;;;37.83;21.67;;;;;;;16.36;62.54;101017.06;4979480;28;20043;-76
2021/11/12 15:14:50;;;;;;;33.85;21.05;;;;;;;16.27;62.82;101008.16;4977582;28;20043;-76
2021/11/12 15:17:34;;;;;;;36.03;21.60;;;;;;;16.18;63.04;101007.50;4979577;28;20050;-78
2021/11/12 15:20:20;;;;;;;;;;;;;;;16.11;63.22;101010.00;4979487;28;20043;-75
2021/11/12 15:29:09;;;;;;;39.38;22.73;;;;;;;15.89;64.36;101002.28;4965215;28;20042;-76
2021/11/12 15:35:41;;;;;;;34.53;22.15;;;;;;;15.76;65.07;101001.47;4973028;28;20042;-77
2021/11/12 15:38:00;;;;;;;39.88;22.50;;;;;;;15.72;65.08;101000.56;4961747;28;20043;-77
2021/11/12 15:40:48;;;;;;;39.08;23.02;;;;;;;15.66;65.20;100999.19;5018482;23;20046;-62
2021/11/12 15:46:31;;;;;;;42.97;22.35;;;;;;;15.51;65.43;101006.16;5014791;28;20034;-62
2021/11/12 15:49:19;;;;;;;39.95;22.98;;;;;;;15.46;65.55;101009.09;5015320;28;20026;-63
2021/11/12 15:52:14;;;;;;;36.75;23.08;;;;;;;15.37;65.71;101014.66;5017341;28;20138;-62
2021/11/12 15:55:20;;;;;;;32.50;17.67;;;;;;;15.29;65.92;101012.81;5016651;28;20037;-62
2021/11/12 16:27:09;;;;;;;46.03;21.67;;;;;;;14.71;66.08;101045.94;4946106;28;20075;-62
2021/11/12 16:29:55;;;;;;;41.58;22.35;;;;;;;14.67;66.22;101047.75;4997994;28;20419;-62
2021/11/12 16:32:44;;;;;;;40.05;23.77;;;;;;;14.59;66.12;101056.81;5009842;28;20495;-62
2021/11/12 16:35:31;;;;;;;47.42;26.08;;;;;;;14.42;66.79;101061.28;5007795;28;20038;-63
2021/11/12 16:38:20;;;;;;;39.70;23.70;;;;;;;14.24;67.18;101064.41;5010141;28;20053;-62
2021/11/12 16:41:12;;;;;;;50.78;25.92;;;;;;;14.31;67.21;101057.31;5010903;28;20042;-62
2021/11/12 17:04:12;;;;;;;39.78;23.05;;;;;;;13.97;66.80;101088.38;5010358;28;20050;-63
2021/11/12 17:22:39;;;;;;;44.58;25.02;;;;;;;13.73;67.80;101090.06;5009883;28;20034;-62
2021/11/12 17:46:55;;;;;;;50.22;28.02;;;;;;;13.39;71.85;101089.06;5005235;28;20033;-63
2021/11/12 17:53:03;;;;;;;43.40;25.08;;;;;;;13.41;70.46;101084.06;5001110;28;20046;-63
2021/11/12 18:02:03;;;;;;;76.68;39.85;;;;;;;13.12;71.76;101092.13;5009409;28;20046;-63
2021/11/12 18:05:12;;;;;;;73.97;35.95;;;;;;;13.13;71.77;101093.75;5010299;28;20041;-63
2021/11/12 18:11:34;;;;;;;44.30;23.77;;;;;;;13.12;72.15;101105.78;4996033;28;20039;-63
2021/11/12 18:17:37;;;;;;;58.38;28.48;;;;;;;13.01;70.84;101109.94;4995862;28;20411;-62
2021/11/12 21:45:14;;;;;;;45.25;22.60;;;;;;;11.85;74.52;101056.97;5004619;28;20046;-61
2021/11/12 21:47:59;;;;;;;45.08;23.13;;;;;;;11.83;74.27;101065.47;5007139;28;20491;-62
2021/11/12 21:50:44;;;;;;;;;;;;;;;11.87;74.71;101061.00;5011712;28;20045;-62
2021/11/12 21:53:32;;;;;;;31.75;18.20;;;;;;;11.85;74.39;101063.22;5009034;28;19921;-62
2021/11/12 21:56:17;;;;;;;41.58;23.65;;;;;;;11.81;73.92;101073.13;5003539;28;20042;-62
2021/11/12 21:59:03;;;;;;;;;;;;;;;11.78;74.20;101062.88;5006707;28;20042;-63
2021/11/12 22:01:49;;;;;;;42.45;24.20;;;;;;;11.70;74.68;101058.16;5009837;28;19913;-63
2021/11/12 22:04:34;;;;;;;47.63;25.90;;;;;;;11.56;74.71;101060.19;5002423;28;20046;-63
2021/11/12 22:07:22;;;;;;;42.65;25.27;;;;;;;11.59;74.75;101065.00;5010830;28;20038;-62
2021/11/12 22:10:07;;;;;;;48.83;26.98;;;;;;;11.48;73.79;101064.44;5031069;23;20054;-77
2021/11/12 22:12:52;;;;;;;42.92;24.15;;;;;;;11.54;74.48;101071.38;5004858;28;20051;-78
2021/11/12 22:15:39;;;;;;;36.88;19.65;;;;;;;11.52;74.19;101076.34;5000675;28;20435;-77
2021/11/12 22:18:25;;;;;;;55.33;26.92;;;;;;;11.44;74.07;101081.72;5006859;28;20046;-77
2021/11/12 22:21:10;;;;;;;47.60;26.40;;;;;;;11.51;74.19;101071.22;5004620;28;20416;-77
2021/11/12 22:23:54;;;;;;;39.35;20.30;;;;;;;11.56;74.32;101065.63;5014024;28;20046;-77
2021/11/12 22:26:46;;;;;;;39.20;22.25;;;;;;;11.58;73.75;101077.00;5011749;28;20415;-76